Time;durP1;ratioP1;P1;durP2;ratioP2;P2;SDS_P1;SDS_P2;PMS_P1;PMS_P2;Temp;Humidity;BMP_temperature;BMP_pressure;BME280_temperature;BME280_humidity;BME280_pressure;Samples;Min_cycle;Max_cycle;Signal;HPM_P1;HPM_P2
2023/01/11 00:01:10;;;;;;;18.90;7.70;;;;;;;6.95;98.76;98557.84;110128;1268;22202;-75
2023/01/11 00:03:38;;;;;;;16.00;8.20;;;;;;;6.95;98.77;98564.92;110143;1269;22391;-75
2023/01/11 00:06:08;;;;;;;20.10;8.90;;;;;;;6.96;98.70;98565.73;110143;1278;23234;-75
2023/01/11 00:08:37;;;;;;;18.50;8.00;;;;;;;6.95;98.53;98575.95;110156;1278;22161;-76
2023/01/11 00:11:15;;;;;;;16.30;8.40;;;;;;;6.95;98.17;98575.60;110058;1278;22215;-76
2023/01/11 00:13:44;;;;;;;16.10;9.50;;;;;;;6.93;97.98;98573.92;110141;1278;22299;-75
2023/01/11 00:16:13;;;;;;;14.10;7.40;;;;;;;6.91;98.01;98583.08;110150;1274;23373;-76
2023/01/11 00:18:41;;;;;;;17.60;8.10;;;;;;;6.90;97.73;98572.42;110126;1277;22206;-76
2023/01/11 00:21:10;;;;;;;13.60;7.40;;;;;;;6.86;97.86;98573.19;110171;1278;22823;-75
2023/01/11 00:23:38;;;;;;;14.70;7.80;;;;;;;6.85;97.65;98589.75;110139;1278;23291;-76
2023/01/11 00:26:11;;;;;;;14.50;7.50;;;;;;;6.82;97.82;98592.90;110115;1278;22262;-75
2023/01/11 00:28:39;;;;;;;13.80;6.50;;;;;;;6.80;97.79;98599.99;110091;1278;22744;-76
2023/01/11 00:31:08;;;;;;;18.60;7.40;;;;;;;6.79;97.67;98594.67;110080;1278;22286;-76
2023/01/11 00:33:36;;;;;;;12.70;6.80;;;;;;;6.81;97.64;98587.58;110149;1275;23469;-75
2023/01/11 00:36:05;;;;;;;12.70;6.90;;;;;;;6.80;97.74;98590.34;110170;1278;22211;-75
2023/01/11 00:38:52;;;;;;;13.40;7.10;;;;;;;6.80;97.96;98587.42;110217;1277;22283;-75
2023/01/11 00:49:44;;;;;;;14.60;7.60;;;;;;;6.88;97.96;98587.61;110199;1277;22170;-76
2023/01/11 00:52:12;;;;;;;14.60;6.60;;;;;;;6.90;98.01;98597.40;110115;1278;22254;-75
2023/01/11 00:54:41;;;;;;;15.40;7.00;;;;;;;6.92;97.90;98601.84;110120;1278;22175;-76
2023/01/11 00:57:09;;;;;;;14.20;7.40;;;;;;;6.95;97.84;98611.09;110140;1275;22287;-75
2023/01/11 00:59:40;;;;;;;14.20;7.50;;;;;;;6.99;97.79;98619.99;110078;1278;22180;-76
2023/01/11 01:02:10;;;;;;;13.90;7.30;;;;;;;7.02;97.69;98620.96;110153;1278;22325;-75
2023/01/11 01:04:39;;;;;;;12.30;6.40;;;;;;;7.04;97.58;98615.25;109130;1263;24233;-75
2023/01/11 01:07:10;;;;;;;15.70;7.60;;;;;;;7.06;97.52;98632.77;107126;1263;22549;-74
2023/01/11 01:09:39;;;;;;;13.20;6.80;;;;;;;7.07;97.59;98654.48;110103;1279;23306;-75
2023/01/11 01:12:08;;;;;;;13.30;6.50;;;;;;;7.09;97.48;98657.89;110158;1278;22194;-75
2023/01/11 01:14:36;;;;;;;17.30;6.90;;;;;;;7.10;97.43;98650.78;110169;1278;22197;-75
2023/01/11 01:17:06;;;;;;;13.40;6.70;;;;;;;7.10;97.32;98656.30;110205;1278;23484;-76
2023/01/11 01:19:36;;;;;;;14.20;6.60;;;;;;;7.13;97.20;98660.05;109943;1278;22356;-75
2023/01/11 01:22:08;;;;;;;15.10;6.40;;;;;;;7.12;97.18;98653.86;110138;1275;22887;-76
2023/01/11 01:24:36;;;;;;;15.60;6.60;;;;;;;7.15;97.31;98665.17;110128;1278;22285;-75
2023/01/11 01:27:04;;;;;;;10.30;6.00;;;;;;;7.16;97.30;98696.70;110123;1278;22951;-76
2023/01/11 01:29:35;;;;;;;16.10;7.50;;;;;;;7.21;97.59;98705.93;110062;1278;22167;-74
2023/01/11 01:32:03;;;;;;;15.20;7.00;;;;;;;7.24;97.19;98708.12;110140;1275;22198;-75
2023/01/11 01:34:31;;;;;;;19.30;7.10;;;;;;;7.25;96.86;98701.38;110144;1278;22199;-75
2023/01/11 01:36:59;;;;;;;13.90;7.40;;;;;;;7.24;96.31;98698.81;110110;1278;22202;-76
2023/01/11 01:39:27;;;;;;;12.90;6.70;;;;;;;7.24;96.27;98703.48;110138;1278;22403;-75
2023/01/11 01:41:56;;;;;;;14.50;7.20;;;;;;;7.22;96.08;98691.42;110079;1278;22214;-75
2023/01/11 01:44:55;;;;;;;12.90;6.90;;;;;;;7.18;95.95;98677.88;110158;1278;22327;-75
2023/01/11 01:47:44;;;;;;;14.50;6.90;;;;;;;7.17;95.76;98687.21;110132;1278;22220;-75
2023/01/11 01:50:23;;;;;;;16.40;7.50;;;;;;;7.14;95.68;98691.21;110111;1278;22411;-75
2023/01/11 01:52:58;;;;;;;13.10;6.90;;;;;;;7.11;95.76;98686.45;110158;1278;22357;-76
2023/01/11 01:55:34;;;;;;;12.20;6.40;;;;;;;7.11;95.49;98686.80;110113;1267;22189;-76
2023/01/11 01:58:11;;;;;;;15.80;7.00;;;;;;;7.10;95.60;98688.71;110141;1278;22402;-75
2023/01/11 02:00:43;;;;;;;14.30;6.50;;;;;;;7.11;95.53;98699.20;110110;1270;22134;-76
2023/01/11 02:03:18;;;;;;;15.70;7.00;;;;;;;7.11;95.72;98690.77;110024;1277;22248;-75
2023/01/11 02:05:48;;;;;;;14.10;6.40;;;;;;;7.10;95.70;98689.05;110134;1275;22164;-75
2023/01/11 02:08:25;;;;;;;11.20;6.90;;;;;;;7.12;95.77;98687.30;110108;1278;22946;-76
2023/01/11 02:10:54;;;;;;;15.30;6.70;;;;;;;7.15;95.69;98683.78;110119;1276;22183;-76
2023/01/11 02:13:23;;;;;;;15.50;6.40;;;;;;;7.18;95.58;98679.08;110094;1270;22954;-76
2023/01/11 02:16:06;;;;;;;12.50;6.40;;;;;;;7.21;95.33;98678.69;110132;1278;22283;-75
2023/01/11 02:18:37;;;;;;;11.80;6.20;;;;;;;7.26;95.28;98688.27;110192;1277;22210;-76
2023/01/11 02:21:22;;;;;;;12.30;6.30;;;;;;;7.27;95.10;98689.96;110135;1278;22324;-76
2023/01/11 02:23:57;;;;;;;11.60;5.90;;;;;;;7.31;95.24;98697.29;109069;1278;22488;-75
2023/01/11 02:26:25;;;;;;;13.00;6.20;;;;;;;7.30;94.77;98706.27;110211;1278;22846;-77
2023/01/11 02:29:17;;;;;;;14.10;7.10;;;;;;;7.31;94.81;98713.31;110108;1279;22362;-76
2023/01/11 02:32:07;;;;;;;11.40;6.30;;;;;;;7.34;94.76;98719.81;110057;1278;22322;-76
2023/01/11 02:34:46;;;;;;;12.80;6.90;;;;;;;7.35;94.41;98721.36;110132;1278;22233;-76
2023/01/11 02:37:21;;;;;;;15.20;7.30;;;;;;;7.30;94.28;98723.69;110084;1278;22300;-76
2023/01/11 02:39:58;;;;;;;11.90;5.90;;;;;;;7.31;94.26;98734.72;110112;1278;22277;-76
2023/01/11 02:45:38;;;;;;;14.60;6.70;;;;;;;7.28;94.23;98754.24;110103;1278;22440;-76
2023/01/11 02:48:06;;;;;;;11.80;6.60;;;;;;;7.27;94.37;98762.70;110164;1278;22195;-76
2023/01/11 02:50:45;;;;;;;15.40;8.30;;;;;;;7.27;94.35;98768.04;110146;1278;22924;-77
2023/01/11 02:53:25;;;;;;;14.80;6.80;;;;;;;7.25;94.24;98774.13;110156;1278;22194;-76
2023/01/11 02:55:57;;;;;;;14.20;7.30;;;;;;;7.22;94.18;98769.17;110053;1277;22351;-76
2023/01/11 02:58:31;;;;;;;14.30;7.60;;;;;;;7.18;94.10;98764.57;110146;1278;22377;-76
2023/01/11 03:00:59;;;;;;;;;;;;;;;7.18;93.75;98759.75;109980;1279;23196;-76
2023/01/11 03:03:28;;;;;;;14.50;6.30;;;;;;;7.14;93.67;98758.09;110113;1278;22210;-76
2023/01/11 03:05:58;;;;;;;12.70;6.20;;;;;;;7.14;93.80;98761.52;110059;1278;22232;-76
2023/01/11 03:08:43;;;;;;;12.30;7.00;;;;;;;7.12;94.06;98764.67;110165;1266;22325;-76
2023/01/11 03:12:50;;;;;;;9.50;5.40;;;;;;;7.14;94.32;98761.20;110148;1278;23125;-76
2023/01/11 03:14:26;;;;;;;18.20;7.40;;;;;;;7.15;94.56;98760.31;110138;1278;23877;-76
2023/01/11 03:17:03;;;;;;;13.80;6.70;;;;;;;7.18;94.68;98761.12;110101;1278;22384;-75
2023/01/11 03:19:49;;;;;;;14.70;7.60;;;;;;;7.19;94.83;98760.25;110219;1278;22354;-76
2023/01/11 03:22:45;;;;;;;13.80;6.70;;;;;;;7.20;95.04;98758.52;110153;1278;22246;-75
2023/01/11 03:25:20;;;;;;;13.20;6.50;;;;;;;7.21;95.12;98765.39;110151;1278;23110;-75
2023/01/11 03:28:00;;;;;;;12.60;6.60;;;;;;;7.22;95.10;98763.15;110118;1278;22230;-76
2023/01/11 03:30:34;;;;;;;13.10;6.50;;;;;;;7.23;95.17;98767.95;110147;1278;23500;-76
2023/01/11 03:33:09;;;;;;;12.10;6.30;;;;;;;7.25;95.18;98772.22;110025;1278;23159;-76
2023/01/11 03:35:52;;;;;;;13.60;6.50;;;;;;;7.27;95.09;98773.40;110133;1274;22227;-75
2023/01/11 03:38:30;;;;;;;11.90;6.90;;;;;;;7.25;94.83;98771.88;110112;1278;23182;-76
2023/01/11 03:41:07;;;;;;;13.20;7.00;;;;;;;7.26;94.89;98778.41;109546;1264;22525;-76
2023/01/11 03:43:39;;;;;;;13.60;7.00;;;;;;;7.24;94.69;98784.48;107158;1278;24340;-75
2023/01/11 03:46:29;;;;;;;13.10;6.40;;;;;;;7.23;94.44;98788.98;110121;1278;22195;-75
2023/01/11 03:49:04;;;;;;;12.30;6.20;;;;;;;7.20;94.33;98791.95;110125;1278;22292;-76
2023/01/11 03:51:40;;;;;;;12.40;6.60;;;;;;;7.17;94.25;98788.55;110185;1278;22284;-76
2023/01/11 03:54:12;;;;;;;12.90;6.10;;;;;;;7.14;94.26;98793.09;110082;1278;22177;-75
2023/01/11 03:56:58;;;;;;;11.80;6.70;;;;;;;7.13;94.09;98795.69;110073;1270;23197;-76
2023/01/11 03:59:26;;;;;;;10.30;6.00;;;;;;;7.10;94.47;98802.96;108674;1278;24222;-75
2023/01/11 04:01:55;;;;;;;12.90;7.10;;;;;;;7.09;94.41;98808.52;107075;1275;25344;-75
2023/01/11 04:04:24;;;;;;;12.20;6.10;;;;;;;7.08;94.17;98812.14;106998;1278;23942;-76
2023/01/11 04:06:52;;;;;;;12.10;6.20;;;;;;;7.04;94.20;98816.52;107193;1278;24225;-75
2023/01/11 04:09:21;;;;;;;12.70;5.50;;;;;;;7.01;94.07;98822.23;107094;1268;22569;-75
2023/01/11 04:11:49;;;;;;;13.20;6.30;;;;;;;6.97;94.12;98826.42;107182;1278;26225;-75
2023/01/11 04:14:17;;;;;;;11.90;6.30;;;;;;;6.94;94.05;98829.92;107155;1273;23644;-74
2023/01/11 04:16:45;;;;;;;11.00;5.90;;;;;;;6.92;94.17;98829.95;107152;1278;22641;-75
2023/01/11 04:19:13;;;;;;;11.60;5.50;;;;;;;6.91;94.55;98825.83;107158;1278;24385;-75
2023/01/11 04:21:44;;;;;;;12.50;6.20;;;;;;;6.92;94.51;98828.40;107263;1276;24130;-75
2023/01/11 04:24:12;;;;;;;12.60;6.70;;;;;;;6.92;94.75;98827.19;107187;1277;22525;-75
2023/01/11 04:26:40;;;;;;;12.70;6.60;;;;;;;6.95;94.92;98830.09;107230;1278;22533;-76
2023/01/11 04:29:09;;;;;;;14.30;7.00;;;;;;;6.99;95.01;98838.31;107208;1278;25350;-75
2023/01/11 04:31:40;;;;;;;13.50;6.50;;;;;;;7.02;94.98;98845.31;107267;1277;23604;-74
2023/01/11 04:34:11;;;;;;;20.00;8.30;;;;;;;7.03;95.01;98842.71;107072;1278;24239;-75
2023/01/11 04:36:42;;;;;;;12.10;6.30;;;;;;;7.05;94.82;98834.23;107129;1278;22627;-76
2023/01/11 04:39:10;;;;;;;21.50;7.70;;;;;;;7.05;94.89;98834.41;106961;1279;25296;-75
2023/01/11 04:44:26;;;;;;;16.20;7.80;;;;;;;7.06;94.80;98848.54;107036;1278;23628;-75
2023/01/11 04:46:54;;;;;;;16.60;7.30;;;;;;;7.08;94.52;98853.48;106959;1278;26634;-75
2023/01/11 04:49:23;;;;;;;15.90;8.10;;;;;;;7.06;94.46;98855.23;107060;1278;22569;-75
2023/01/11 04:51:51;;;;;;;12.50;7.30;;;;;;;7.06;94.35;98859.90;107007;1278;25438;-75
2023/01/11 04:54:20;;;;;;;14.50;7.00;;;;;;;7.03;94.16;98861.84;107097;1276;22576;-75
2023/01/11 04:56:48;;;;;;;16.10;8.00;;;;;;;7.04;94.00;98862.86;106984;1278;22546;-76
2023/01/11 04:59:16;;;;;;;18.00;7.60;;;;;;;7.03;93.84;98862.70;106998;1278;25400;-75
2023/01/11 05:01:44;;;;;;;15.80;7.40;;;;;;;7.01;94.00;98863.60;107074;1278;25331;-76
2023/01/11 05:04:13;;;;;;;12.50;6.80;;;;;;;6.99;93.98;98864.66;107101;1278;22518;-75
2023/01/11 05:06:44;;;;;;;18.10;6.80;;;;;;;6.97;94.10;98869.84;107121;1278;23369;-75
2023/01/11 05:09:15;;;;;;;13.70;7.00;;;;;;;6.96;94.25;98876.92;107036;1277;24200;-75
2023/01/11 05:11:43;;;;;;;14.30;7.50;;;;;;;6.95;94.12;98877.63;110082;1278;22274;-76
2023/01/11 05:14:12;;;;;;;13.90;7.10;;;;;;;6.94;94.03;98878.68;110161;1276;22199;-76
2023/01/11 05:16:41;;;;;;;14.80;7.10;;;;;;;6.94;94.11;98883.85;110040;1279;22201;-75
2023/01/11 05:19:10;;;;;;;13.80;7.00;;;;;;;6.93;94.14;98873.88;110110;1277;22280;-75
2023/01/11 05:21:40;;;;;;;12.50;6.60;;;;;;;6.94;94.14;98875.59;109974;1279;22155;-75
2023/01/11 05:24:14;;;;;;;13.00;5.70;;;;;;;6.95;94.11;98874.18;110077;1278;22301;-75
2023/01/11 05:26:44;;;;;;;15.20;6.70;;;;;;;6.98;93.75;98870.52;110071;1278;22186;-76
2023/01/11 05:29:15;;;;;;;16.80;6.50;;;;;;;7.00;93.94;98882.73;108998;1278;22637;-76
2023/01/11 05:31:43;;;;;;;14.00;6.90;;;;;;;7.04;93.97;98899.73;107452;1277;22530;-75
2023/01/11 05:34:13;;;;;;;12.50;6.20;;;;;;;7.06;94.04;98903.84;107325;1278;22529;-74
2023/01/11 05:36:42;;;;;;;12.10;6.10;;;;;;;7.09;93.81;98906.90;107266;1276;22541;-75
2023/01/11 05:39:12;;;;;;;13.70;6.60;;;;;;;7.11;93.88;98911.52;107157;1277;23867;-74
2023/01/11 05:41:43;;;;;;;13.40;5.90;;;;;;;7.15;94.02;98910.78;106984;1277;24258;-76
2023/01/11 05:47:01;;;;;;;13.50;6.00;;;;;;;7.20;93.57;98901.23;107192;1277;22505;-75
2023/01/11 05:49:44;;;;;;;14.70;6.30;;;;;;;7.21;93.51;98908.27;107137;1267;22701;-74
2023/01/11 05:52:14;;;;;;;;;;;;;;;7.24;93.26;98910.15;107275;1278;24253;-74
2023/01/11 05:54:43;;;;;;;17.80;7.60;;;;;;;7.22;92.84;98911.04;107656;1278;23930;-74
2023/01/11 05:57:17;;;;;;;12.90;7.00;;;;;;;7.22;92.75;98915.34;107464;1268;22539;-75
2023/01/11 05:59:45;;;;;;;13.00;6.30;;;;;;;7.20;92.48;98911.92;107294;1264;25575;-75
2023/01/11 06:02:16;;;;;;;15.40;7.60;;;;;;;7.20;92.66;98915.19;107364;1277;25580;-75
2023/01/11 06:04:47;;;;;;;13.30;7.30;;;;;;;7.20;92.72;98916.58;107283;1277;22530;-76
2023/01/11 06:07:16;;;;;;;15.20;7.70;;;;;;;7.16;92.20;98922.83;107327;1277;25319;-75
2023/01/11 06:09:44;;;;;;;17.30;8.10;;;;;;;7.12;92.54;98926.33;107262;1277;22527;-75
2023/01/11 06:12:12;;;;;;;15.90;7.90;;;;;;;7.11;92.29;98933.94;107274;1277;22489;-74
2023/01/11 06:14:43;;;;;;;18.20;7.70;;;;;;;7.05;92.43;98936.95;107315;1278;22710;-75
2023/01/11 06:17:11;;;;;;;14.50;8.10;;;;;;;7.03;92.46;98938.52;107226;1278;22535;-74
2023/01/11 06:19:50;;;;;;;13.10;6.50;;;;;;;7.02;92.07;98943.53;107206;1263;23308;-75
2023/01/11 06:22:22;;;;;;;13.80;6.10;;;;;;;7.00;92.31;98959.06;107442;1278;22529;-75
2023/01/11 06:24:53;;;;;;;13.20;6.20;;;;;;;7.01;92.19;98958.89;107916;1275;22516;-75
2023/01/11 06:27:21;;;;;;;11.80;6.30;;;;;;;7.03;92.36;98959.04;107676;1278;22529;-75
2023/01/11 06:29:50;;;;;;;13.70;6.80;;;;;;;7.06;92.46;98958.48;107244;1278;22542;-75
2023/01/11 06:32:18;;;;;;;23.10;11.00;;;;;;;7.07;92.56;98964.84;107253;1278;24283;-74
2023/01/11 06:34:46;;;;;;;16.10;7.70;;;;;;;7.09;92.78;98967.23;107222;1278;25426;-76
2023/01/11 06:37:15;;;;;;;16.10;8.20;;;;;;;7.14;92.72;98979.05;107256;1270;23309;-75
2023/01/11 06:39:43;;;;;;;19.50;7.80;;;;;;;7.17;92.66;98974.01;107293;1277;25559;-75
2023/01/11 06:42:11;;;;;;;22.80;8.30;;;;;;;7.21;92.65;98975.34;107142;1278;22656;-75
2023/01/11 06:44:39;;;;;;;20.50;9.60;;;;;;;7.25;92.77;98986.15;107305;1256;22544;-75
2023/01/11 06:47:07;;;;;;;20.90;9.50;;;;;;;7.28;92.69;98988.52;107211;1278;22794;-74
2023/01/11 06:49:35;;;;;;;28.80;11.70;;;;;;;7.34;92.80;98992.74;107273;1277;22616;-75
2023/01/11 06:52:03;;;;;;;31.00;12.30;;;;;;;7.36;92.08;98993.22;107185;1276;23814;-76
2023/01/11 06:54:32;;;;;;;24.20;11.40;;;;;;;7.40;92.48;98993.70;107404;1270;25298;-75
2023/01/11 06:57:00;;;;;;;34.80;14.40;;;;;;;7.40;92.45;98995.42;107530;1271;22604;-75
2023/01/11 06:59:28;;;;;;;25.40;11.30;;;;;;;7.41;92.22;98995.92;107434;1277;24777;-74
2023/01/11 07:01:57;;;;;;;22.50;10.30;;;;;;;7.42;91.81;98994.19;107408;1275;22561;-75
2023/01/11 07:04:26;;;;;;;22.90;10.00;;;;;;;7.42;91.50;99005.41;107334;1275;22611;-75
2023/01/11 07:06:55;;;;;;;24.00;11.40;;;;;;;7.42;91.41;99009.54;107374;1277;23251;-76
2023/01/11 07:09:23;;;;;;;20.40;10.20;;;;;;;7.42;91.37;98998.51;107418;1277;23898;-75
2023/01/11 07:11:51;;;;;;;13.20;7.20;;;;;;;7.42;90.82;98997.46;107449;1270;25377;-75
2023/01/11 07:14:20;;;;;;;14.50;7.50;;;;;;;7.41;90.76;99003.69;107346;1271;22534;-75
2023/01/11 07:16:49;;;;;;;16.70;9.00;;;;;;;7.42;91.17;99005.05;107459;1275;24369;-75
2023/01/11 07:19:19;;;;;;;16.50;7.60;;;;;;;7.45;91.05;99012.09;107641;1274;22617;-75
2023/01/11 07:21:47;;;;;;;21.70;8.70;;;;;;;7.48;91.35;99011.01;107523;1272;22611;-75
2023/01/11 07:24:16;;;;;;;17.00;8.20;;;;;;;7.48;90.89;99012.20;107639;1271;25103;-75
2023/01/11 07:26:45;;;;;;;16.80;8.40;;;;;;;7.52;91.27;99019.73;109482;1278;22484;-75
2023/01/11 07:29:13;;;;;;;16.30;8.00;;;;;;;7.57;90.97;99032.45;107238;1270;22555;-76
2023/01/11 07:31:41;;;;;;;21.80;10.00;;;;;;;7.62;90.86;99037.73;107528;1268;22577;-75
2023/01/11 07:34:09;;;;;;;74.30;28.70;;;;;;;7.64;91.48;99036.14;107487;1275;25339;-75
2023/01/11 07:36:39;;;;;;;22.30;11.00;;;;;;;7.68;91.24;99028.49;107523;1278;22534;-75
2023/01/11 07:39:07;;;;;;;18.40;9.10;;;;;;;7.68;90.93;99025.73;107589;1270;23363;-75
2023/01/11 07:44:23;;;;;;;18.40;8.40;;;;;;;7.71;90.60;99036.56;107515;1277;22520;-76
2023/01/11 07:47:04;;;;;;;15.70;8.00;;;;;;;7.71;90.16;99037.77;107560;1278;22510;-76
2023/01/11 07:49:33;;;;;;;16.80;8.30;;;;;;;7.71;90.29;99036.71;107513;1270;22644;-75
2023/01/11 07:52:01;;;;;;;18.40;8.40;;;;;;;7.75;90.28;99048.92;108300;1271;22235;-76
2023/01/11 07:54:30;;;;;;;20.00;8.10;;;;;;;7.77;90.16;99049.23;110005;1278;22201;-75
2023/01/11 07:56:58;;;;;;;17.40;8.10;;;;;;;7.78;89.82;99051.11;110044;1270;22378;-75
2023/01/11 07:59:26;;;;;;;16.70;8.10;;;;;;;7.76;89.15;99055.30;110070;1278;22219;-76
2023/01/11 08:01:54;;;;;;;16.00;8.00;;;;;;;7.78;88.95;99062.67;110069;1270;22396;-76
2023/01/11 08:04:22;;;;;;;15.70;7.90;;;;;;;7.76;88.66;99068.90;110059;1271;22309;-76
2023/01/11 08:06:50;;;;;;;17.20;8.20;;;;;;;7.76;88.81;99070.81;110160;1275;23063;-76
2023/01/11 08:09:18;;;;;;;16.50;7.20;;;;;;;7.73;88.20;99076.71;110062;1270;23001;-76
2023/01/11 08:14:39;;;;;;;12.50;5.70;;;;;;;7.78;88.54;99080.80;110057;1272;23287;-77
2023/01/11 08:17:11;;;;;;;14.60;5.70;;;;;;;7.83;88.82;99090.21;110026;1278;22215;-76
2023/01/11 08:19:39;;;;;;;9.10;5.30;;;;;;;7.89;88.10;99102.21;110073;1277;22490;-76
2023/01/11 08:22:08;;;;;;;12.10;5.90;;;;;;;7.91;88.33;99105.98;110057;1278;22199;-76
2023/01/11 08:24:36;;;;;;;11.70;5.90;;;;;;;7.96;89.03;99104.36;109900;1278;22404;-76
2023/01/11 08:27:05;;;;;;;11.20;5.60;;;;;;;8.01;88.88;99104.63;110116;1278;23161;-76
2023/01/11 08:29:33;;;;;;;14.80;7.60;;;;;;;8.10;89.70;99103.45;110067;1277;22423;-76
2023/01/11 08:32:01;;;;;;;15.30;7.90;;;;;;;8.14;88.86;99100.13;110037;1278;22183;-76
2023/01/11 08:34:30;;;;;;;20.00;8.60;;;;;;;8.16;87.73;99109.58;110140;1278;22950;-76
2023/01/11 08:37:01;;;;;;;14.80;7.80;;;;;;;8.24;88.30;99112.41;110005;1276;22535;-76
2023/01/11 08:39:30;;;;;;;14.80;8.10;;;;;;;8.26;87.25;99113.75;110053;1277;22223;-76
2023/01/11 08:41:59;;;;;;;17.40;8.60;;;;;;;8.32;87.48;99120.05;110077;1278;22568;-76
2023/01/11 08:44:27;;;;;;;17.60;8.30;;;;;;;8.32;86.89;99125.22;110095;1277;22442;-76
2023/01/11 08:47:02;;;;;;;16.50;8.90;;;;;;;8.35;87.28;99132.08;109936;1278;22495;-76
2023/01/11 08:49:30;;;;;;;17.50;8.40;;;;;;;8.37;87.07;99134.48;110060;1274;23045;-76
2023/01/11 08:51:59;;;;;;;19.10;8.40;;;;;;;8.37;87.37;99136.05;110053;1271;22298;-76
2023/01/11 09:16:13;;;;;;;23.10;10.60;;;;;;;8.27;86.68;99147.23;110140;1267;22324;-76
2023/01/11 09:18:42;;;;;;;28.70;10.50;;;;;;;8.30;86.80;99149.44;110101;1271;22357;-75
2023/01/11 09:21:11;;;;;;;24.20;10.20;;;;;;;8.28;87.03;99149.83;110062;1270;22627;-75
2023/01/11 09:23:39;;;;;;;24.80;11.30;;;;;;;8.32;87.02;99152.16;110068;1270;22372;-76
2023/01/11 09:26:08;;;;;;;25.00;11.50;;;;;;;8.34;86.90;99151.27;110121;1270;22516;-76
2023/01/11 09:28:39;;;;;;;22.00;9.50;;;;;;;8.42;87.08;99142.36;110135;1271;22187;-75
2023/01/11 09:31:07;;;;;;;21.20;9.10;;;;;;;8.49;86.35;99143.99;110088;1278;22901;-76
2023/01/11 09:33:38;;;;;;;21.40;9.30;;;;;;;8.55;86.58;99150.98;110123;1268;22367;-75
2023/01/11 09:36:06;;;;;;;26.80;13.00;;;;;;;8.61;86.93;99156.06;110138;1278;22216;-76
2023/01/11 09:38:36;;;;;;;21.20;11.80;;;;;;;8.63;86.08;99155.34;110082;1278;22297;-75
2023/01/11 09:41:20;;;;;;;19.60;10.70;;;;;;;8.67;86.00;99159.76;109384;1273;703245;-76
2023/01/11 09:44:01;;;;;;;17.60;8.40;;;;;;;8.69;85.23;99166.64;110137;1277;22358;-75
2023/01/11 09:46:32;;;;;;;18.30;8.70;;;;;;;8.70;85.09;99165.77;110138;1271;22444;-76
2023/01/11 09:49:02;;;;;;;18.20;9.40;;;;;;;8.72;85.01;99176.97;110049;1277;23111;-76
2023/01/11 09:51:34;;;;;;;20.40;10.60;;;;;;;8.73;84.57;99178.00;110060;1278;23077;-75
2023/01/11 09:54:06;;;;;;;16.40;8.80;;;;;;;8.74;84.84;99181.09;110091;1271;22277;-76
2023/01/11 09:56:46;;;;;;;24.70;12.70;;;;;;;8.74;84.79;99181.08;108986;1278;22558;-76
2023/01/11 09:59:25;;;;;;;27.30;15.10;;;;;;;8.67;84.46;99175.84;107499;1272;25850;-75
2023/01/11 10:02:04;;;;;;;27.20;13.80;;;;;;;8.66;84.87;99180.36;107579;1278;25921;-76
2023/01/11 10:04:40;;;;;;;18.60;12.30;;;;;;;8.67;84.95;99171.35;107673;1273;25608;-76
2023/01/11 10:07:36;;;;;;;21.80;11.20;;;;;;;8.68;84.85;99174.63;107619;1270;25516;-76
2023/01/11 10:10:32;;;;;;;22.20;11.90;;;;;;;8.72;85.37;99178.20;110104;1277;23530;-75
2023/01/11 10:13:33;;;;;;;31.70;16.60;;;;;;;8.79;84.75;99174.26;110114;1278;22150;-76
2023/01/11 10:16:34;;;;;;;21.90;9.60;;;;;;;8.90;84.82;99180.31;110005;1278;23003;-76
2023/01/11 10:19:46;;;;;;;17.20;7.40;;;;;;;9.02;84.37;99181.49;110028;1278;22212;-75
2023/01/11 10:22:31;;;;;;;16.10;7.80;;;;;;;9.16;84.65;99179.69;110060;1270;22560;-76
2023/01/11 10:25:15;;;;;;;18.10;8.20;;;;;;;9.29;84.35;99181.69;110043;1270;23747;-76
2023/01/11 10:27:55;;;;;;;18.80;7.40;;;;;;;9.42;84.09;99180.77;109956;1278;22183;-76
2023/01/11 10:30:35;;;;;;;35.40;15.90;;;;;;;9.53;83.40;99170.86;110042;1270;22338;-77
2023/01/11 10:42:04;;;;;;;11.20;6.40;;;;;;;10.19;81.26;99162.20;109802;1272;23442;-76
2023/01/11 10:44:41;;;;;;;9.30;3.30;;;;;;;10.32;79.55;99166.09;109926;1276;22354;-77
2023/01/11 10:47:17;;;;;;;4.60;2.70;;;;;;;10.45;81.66;99175.85;110044;1270;22393;-76
2023/01/11 10:50:01;;;;;;;4.10;2.20;;;;;;;10.51;77.50;99178.84;110105;1270;22522;-78
2023/01/11 10:52:46;;;;;;;5.90;2.50;;;;;;;10.55;78.69;99184.45;110036;1269;22510;-76
2023/01/11 10:55:44;;;;;;;5.20;2.70;;;;;;;10.61;79.22;99183.95;110082;1276;22349;-77
2023/01/11 10:58:39;;;;;;;4.20;2.40;;;;;;;10.68;77.71;99181.73;110072;1270;22539;-77
2023/01/11 11:01:23;;;;;;;5.00;2.80;;;;;;;10.69;77.50;99175.64;108796;1278;22528;-77
2023/01/11 11:03:57;;;;;;;10.30;3.70;;;;;;;10.77;76.91;99173.02;107566;1274;22596;-76
2023/01/11 11:06:45;;;;;;;4.60;2.30;;;;;;;10.87;76.24;99170.52;107436;1271;28163;-75
2023/01/11 11:09:44;;;;;;;8.00;2.60;;;;;;;10.92;74.26;99167.61;107390;1270;22685;-75
2023/01/11 11:12:28;;;;;;;8.10;2.60;;;;;;;10.96;73.99;99173.75;107327;1278;23329;-75
2023/01/11 11:15:24;;;;;;;7.60;2.70;;;;;;;11.00;73.64;99172.43;107443;1270;22736;-76
2023/01/11 11:17:53;;;;;;;5.20;2.80;;;;;;;11.02;72.75;99176.38;107528;1270;22624;-75
2023/01/11 11:20:28;;;;;;;6.50;2.90;;;;;;;11.04;74.13;99173.19;107447;1269;22513;-75
2023/01/11 11:22:57;;;;;;;5.80;2.90;;;;;;;11.12;73.23;99167.95;107442;1271;24212;-78
2023/01/11 11:25:38;;;;;;;5.70;2.60;;;;;;;11.23;74.11;99170.62;107294;1272;22583;-74
2023/01/11 11:28:13;;;;;;;4.00;2.00;;;;;;;11.33;73.75;99174.00;109960;1278;22858;-76
2023/01/11 11:30:44;;;;;;;5.10;2.20;;;;;;;11.35;70.85;99175.50;110077;1278;22382;-76
2023/01/11 11:33:19;;;;;;;6.20;3.10;;;;;;;11.40;70.93;99177.64;110097;1274;22217;-77
2023/01/11 11:36:03;;;;;;;5.00;2.70;;;;;;;11.43;71.50;99177.71;109955;1278;22297;-76
2023/01/11 11:38:35;;;;;;;38.80;17.40;;;;;;;11.38;72.10;99176.99;109990;1278;22184;-76
2023/01/11 11:41:03;;;;;;;7.10;3.40;;;;;;;11.39;70.25;99171.77;110091;1277;22226;-76
2023/01/11 11:43:36;;;;;;;6.00;3.20;;;;;;;11.40;69.88;99180.58;110086;1272;22338;-76
2023/01/11 11:46:23;;;;;;;11.00;4.60;;;;;;;11.44;71.38;99180.48;109991;1275;22346;-77
2023/01/11 11:49:24;;;;;;;4.40;2.10;;;;;;;11.49;70.66;99179.81;110022;1277;22235;-76
2023/01/11 11:51:52;;;;;;;5.10;2.80;;;;;;;11.48;71.16;99177.41;109844;1278;22363;-75
2023/01/11 11:54:27;;;;;;;9.00;2.80;;;;;;;11.52;70.84;99183.04;109997;1272;23180;-75
2023/01/11 11:56:58;;;;;;;5.00;2.50;;;;;;;11.64;71.29;99182.02;109927;1271;22301;-77
2023/01/11 11:59:31;;;;;;;5.50;2.80;;;;;;;11.77;71.07;99181.11;110052;1278;23140;-75
2023/01/11 12:02:03;;;;;;;5.90;3.10;;;;;;;11.83;70.07;99183.91;110087;1272;22209;-76
2023/01/11 12:04:43;;;;;;;7.70;2.30;;;;;;;11.86;67.29;99178.43;110121;1278;22943;-77
2023/01/11 12:07:15;;;;;;;5.00;2.30;;;;;;;12.01;66.45;99182.02;110020;1278;23494;-77
2023/01/11 12:09:49;;;;;;;8.00;3.80;;;;;;;12.15;67.33;99183.17;109945;1274;22388;-76
2023/01/11 12:12:19;;;;;;;5.90;3.00;;;;;;;12.26;68.37;99185.98;110040;1271;22192;-76
2023/01/11 12:15:13;;;;;;;4.20;2.30;;;;;;;12.52;67.69;99187.77;110095;1278;22331;-77
2023/01/11 12:17:42;;;;;;;5.10;1.80;;;;;;;12.72;64.68;99184.52;110046;1271;22512;-76
2023/01/11 12:20:22;;;;;;;4.70;2.30;;;;;;;12.86;65.95;99187.17;110126;1278;22226;-75
2023/01/11 12:23:13;;;;;;;5.80;2.00;;;;;;;12.95;65.99;99184.11;110076;1272;22186;-76
2023/01/11 12:26:07;;;;;;;4.50;2.50;;;;;;;13.00;64.36;99180.67;110126;1278;23539;-75
2023/01/11 12:28:50;;;;;;;;;;;;;;;12.90;65.89;99178.02;109894;1277;22385;-76
2023/01/11 12:31:37;;;;;;;4.70;2.30;;;;;;;12.68;64.56;99176.31;110120;1271;22412;-75
2023/01/11 12:34:42;;;;;;;6.00;2.90;;;;;;;12.52;64.93;99189.33;110127;1262;22332;-75
2023/01/11 12:37:41;;;;;;;5.00;2.60;;;;;;;12.57;67.07;99187.79;110101;1272;22200;-76
2023/01/11 12:40:16;;;;;;;8.10;3.50;;;;;;;12.44;66.48;99183.30;110145;1271;23196;-76
2023/01/11 12:42:47;;;;;;;4.90;2.30;;;;;;;12.34;66.53;99184.68;108464;1278;22552;-75
2023/01/11 12:45:40;;;;;;;8.20;4.20;;;;;;;12.17;65.04;99191.45;107336;1269;22552;-75
2023/01/11 12:48:36;;;;;;;9.40;5.60;;;;;;;11.94;66.20;99182.39;107401;1278;23512;-75